sensor_id;sensor_type;location;lat;lon;timestamp;P1;durP1;ratioP1;P2;durP2;ratioP2
58665;SDS011;44436;52.872;6.520;2022-08-26T00:00:43;43.17;;;37.53;;
58665;SDS011;44436;52.872;6.520;2022-08-26T00:03:09;44.90;;;37.47;;
58665;SDS011;44436;52.872;6.520;2022-08-26T00:05:36;41.55;;;36.58;;
58665;SDS011;44436;52.872;6.520;2022-08-26T00:08:03;47.55;;;38.67;;
58665;SDS011;44436;52.872;6.520;2022-08-26T00:10:29;42.30;;;37.70;;
58665;SDS011;44436;52.872;6.520;2022-08-26T00:12:54;42.60;;;37.90;;
58665;SDS011;44436;52.872;6.520;2022-08-26T00:15:20;41.55;;;37.08;;
58665;SDS011;44436;52.872;6.520;2022-08-26T00:17:47;41.40;;;36.38;;
58665;SDS011;44436;52.872;6.520;2022-08-26T00:20:15;37.97;;;33.60;;
58665;SDS011;44436;52.872;6.520;2022-08-26T00:22:43;53.25;;;38.50;;
58665;SDS011;44436;52.872;6.520;2022-08-26T00:25:09;44.13;;;39.40;;
58665;SDS011;44436;52.872;6.520;2022-08-26T00:27:36;48.28;;;38.30;;
58665;SDS011;44436;52.872;6.520;2022-08-26T00:30:04;46.13;;;36.25;;
58665;SDS011;44436;52.872;6.520;2022-08-26T00:32:33;42.45;;;37.85;;
58665;SDS011;44436;52.872;6.520;2022-08-26T00:34:59;43.33;;;38.70;;
58665;SDS011;44436;52.872;6.520;2022-08-26T00:37:25;43.58;;;38.95;;
58665;SDS011;44436;52.872;6.520;2022-08-26T00:39:50;44.30;;;38.40;;
58665;SDS011;44436;52.872;6.520;2022-08-26T00:42:16;46.85;;;38.72;;
58665;SDS011;44436;52.872;6.520;2022-08-26T00:44:42;47.42;;;39.63;;
58665;SDS011;44436;52.872;6.520;2022-08-26T00:47:08;45.45;;;37.97;;
58665;SDS011;44436;52.872;6.520;2022-08-26T00:49:43;53.58;;;38.03;;
58665;SDS011;44436;52.872;6.520;2022-08-26T00:52:12;41.78;;;35.80;;
58665;SDS011;44436;52.872;6.520;2022-08-26T00:54:44;47.97;;;35.90;;
58665;SDS011;44436;52.872;6.520;2022-08-26T00:57:16;44.22;;;35.50;;
58665;SDS011;44436;52.872;6.520;2022-08-26T00:59:44;47.28;;;34.28;;
58665;SDS011;44436;52.872;6.520;2022-08-26T01:02:12;46.60;;;33.88;;
58665;SDS011;44436;52.872;6.520;2022-08-26T01:04:39;47.38;;;31.80;;
58665;SDS011;44436;52.872;6.520;2022-08-26T01:07:06;43.50;;;32.60;;
58665;SDS011;44436;52.872;6.520;2022-08-26T01:09:32;37.53;;;29.48;;
58665;SDS011;44436;52.872;6.520;2022-08-26T01:11:59;38.10;;;30.63;;
58665;SDS011;44436;52.872;6.520;2022-08-26T01:14:28;40.20;;;29.92;;
58665;SDS011;44436;52.872;6.520;2022-08-26T01:16:56;41.80;;;30.65;;
58665;SDS011;44436;52.872;6.520;2022-08-26T01:19:24;42.08;;;29.13;;
58665;SDS011;44436;52.872;6.520;2022-08-26T01:22:14;45.00;;;29.38;;
58665;SDS011;44436;52.872;6.520;2022-08-26T01:24:44;40.80;;;29.20;;
58665;SDS011;44436;52.872;6.520;2022-08-26T01:27:11;41.95;;;29.80;;
58665;SDS011;44436;52.872;6.520;2022-08-26T01:29:40;40.00;;;26.75;;
58665;SDS011;44436;52.872;6.520;2022-08-26T01:32:08;36.42;;;26.08;;
58665;SDS011;44436;52.872;6.520;2022-08-26T01:34:36;36.22;;;27.38;;
58665;SDS011;44436;52.872;6.520;2022-08-26T01:37:05;38.05;;;27.98;;
58665;SDS011;44436;52.872;6.520;2022-08-26T01:39:34;36.17;;;26.30;;
58665;SDS011;44436;52.872;6.520;2022-08-26T01:42:04;39.40;;;26.08;;
58665;SDS011;44436;52.872;6.520;2022-08-26T01:44:34;37.30;;;25.98;;
58665;SDS011;44436;52.872;6.520;2022-08-26T01:47:05;40.30;;;26.48;;
58665;SDS011;44436;52.872;6.520;2022-08-26T01:49:34;38.45;;;27.33;;
58665;SDS011;44436;52.872;6.520;2022-08-26T01:52:00;36.78;;;26.30;;
58665;SDS011;44436;52.872;6.520;2022-08-26T01:54:29;38.22;;;25.48;;
58665;SDS011;44436;52.872;6.520;2022-08-26T01:56:55;30.80;;;24.30;;
58665;SDS011;44436;52.872;6.520;2022-08-26T01:59:23;33.08;;;24.70;;
58665;SDS011;44436;52.872;6.520;2022-08-26T02:01:49;35.72;;;25.70;;
58665;SDS011;44436;52.872;6.520;2022-08-26T02:04:30;38.92;;;24.95;;
58665;SDS011;44436;52.872;6.520;2022-08-26T02:07:29;35.03;;;24.80;;
58665;SDS011;44436;52.872;6.520;2022-08-26T02:09:56;40.80;;;25.08;;
58665;SDS011;44436;52.872;6.520;2022-08-26T02:12:22;34.03;;;24.30;;
58665;SDS011;44436;52.872;6.520;2022-08-26T02:14:51;35.85;;;24.10;;
58665;SDS011;44436;52.872;6.520;2022-08-26T02:17:22;32.38;;;24.83;;
58665;SDS011;44436;52.872;6.520;2022-08-26T02:19:53;31.17;;;22.13;;
58665;SDS011;44436;52.872;6.520;2022-08-26T02:22:20;34.28;;;24.85;;
58665;SDS011;44436;52.872;6.520;2022-08-26T02:24:51;34.20;;;25.02;;
58665;SDS011;44436;52.872;6.520;2022-08-26T02:27:21;33.20;;;21.85;;
58665;SDS011;44436;52.872;6.520;2022-08-26T02:32:32;35.28;;;22.48;;
58665;SDS011;44436;52.872;6.520;2022-08-26T02:34:57;32.22;;;20.60;;
58665;SDS011;44436;52.872;6.520;2022-08-26T02:37:23;32.40;;;20.05;;
58665;SDS011;44436;52.872;6.520;2022-08-26T02:39:54;29.00;;;19.77;;
58665;SDS011;44436;52.872;6.520;2022-08-26T02:42:19;31.60;;;20.13;;
58665;SDS011;44436;52.872;6.520;2022-08-26T02:44:45;37.15;;;19.08;;
58665;SDS011;44436;52.872;6.520;2022-08-26T02:47:12;32.50;;;19.02;;
58665;SDS011;44436;52.872;6.520;2022-08-26T02:49:38;46.10;;;18.30;;
58665;SDS011;44436;52.872;6.520;2022-08-26T02:52:08;30.83;;;18.45;;
58665;SDS011;44436;52.872;6.520;2022-08-26T02:54:35;32.55;;;18.92;;
58665;SDS011;44436;52.872;6.520;2022-08-26T02:57:00;33.22;;;18.35;;
58665;SDS011;44436;52.872;6.520;2022-08-26T02:59:27;26.75;;;17.95;;
58665;SDS011;44436;52.872;6.520;2022-08-26T03:01:53;60.22;;;18.42;;
58665;SDS011;44436;52.872;6.520;2022-08-26T03:04:19;29.92;;;16.80;;
58665;SDS011;44436;52.872;6.520;2022-08-26T03:06:45;24.65;;;15.18;;
58665;SDS011;44436;52.872;6.520;2022-08-26T03:09:13;30.70;;;17.02;;
58665;SDS011;44436;52.872;6.520;2022-08-26T03:11:39;26.83;;;16.02;;
58665;SDS011;44436;52.872;6.520;2022-08-26T03:14:04;27.95;;;15.90;;
58665;SDS011;44436;52.872;6.520;2022-08-26T03:16:34;26.88;;;15.85;;
58665;SDS011;44436;52.872;6.520;2022-08-26T03:19:01;27.23;;;15.77;;
58665;SDS011;44436;52.872;6.520;2022-08-26T03:21:28;31.70;;;15.70;;
58665;SDS011;44436;52.872;6.520;2022-08-26T03:23:54;33.53;;;17.80;;
58665;SDS011;44436;52.872;6.520;2022-08-26T03:26:20;32.70;;;17.05;;
58665;SDS011;44436;52.872;6.520;2022-08-26T03:28:47;28.15;;;16.05;;
58665;SDS011;44436;52.872;6.520;2022-08-26T03:31:31;31.73;;;16.27;;
58665;SDS011;44436;52.872;6.520;2022-08-26T03:33:56;30.13;;;16.08;;
58665;SDS011;44436;52.872;6.520;2022-08-26T03:36:23;25.52;;;15.02;;
58665;SDS011;44436;52.872;6.520;2022-08-26T03:38:49;26.65;;;15.48;;
58665;SDS011;44436;52.872;6.520;2022-08-26T03:41:15;29.13;;;15.23;;
58665;SDS011;44436;52.872;6.520;2022-08-26T03:43:42;26.48;;;14.85;;
58665;SDS011;44436;52.872;6.520;2022-08-26T03:46:09;26.15;;;14.65;;
58665;SDS011;44436;52.872;6.520;2022-08-26T03:48:38;23.40;;;13.95;;
58665;SDS011;44436;52.872;6.520;2022-08-26T03:51:09;27.67;;;14.63;;
58665;SDS011;44436;52.872;6.520;2022-08-26T03:53:39;28.73;;;13.80;;
58665;SDS011;44436;52.872;6.520;2022-08-26T03:56:05;26.23;;;13.20;;
58665;SDS011;44436;52.872;6.520;2022-08-26T03:58:31;23.38;;;12.75;;
58665;SDS011;44436;52.872;6.520;2022-08-26T04:00:57;24.50;;;14.15;;
58665;SDS011;44436;52.872;6.520;2022-08-26T04:03:24;26.65;;;13.60;;
58665;SDS011;44436;52.872;6.520;2022-08-26T04:06:09;23.73;;;13.48;;
58665;SDS011;44436;52.872;6.520;2022-08-26T04:08:35;23.85;;;13.30;;
58665;SDS011;44436;52.872;6.520;2022-08-26T04:11:01;27.42;;;13.02;;
58665;SDS011;44436;52.872;6.520;2022-08-26T04:13:27;23.05;;;12.20;;
58665;SDS011;44436;52.872;6.520;2022-08-26T04:15:53;25.35;;;11.70;;
58665;SDS011;44436;52.872;6.520;2022-08-26T04:18:19;21.10;;;11.32;;
58665;SDS011;44436;52.872;6.520;2022-08-26T04:20:45;23.98;;;11.73;;
58665;SDS011;44436;52.872;6.520;2022-08-26T04:23:11;21.65;;;11.07;;
58665;SDS011;44436;52.872;6.520;2022-08-26T04:25:38;25.70;;;11.20;;
58665;SDS011;44436;52.872;6.520;2022-08-26T04:28:04;18.38;;;10.43;;
58665;SDS011;44436;52.872;6.520;2022-08-26T04:30:30;23.50;;;11.20;;
58665;SDS011;44436;52.872;6.520;2022-08-26T04:32:56;21.33;;;10.60;;
58665;SDS011;44436;52.872;6.520;2022-08-26T04:35:22;22.88;;;11.75;;
58665;SDS011;44436;52.872;6.520;2022-08-26T04:37:49;25.65;;;11.77;;
58665;SDS011;44436;52.872;6.520;2022-08-26T04:40:15;23.75;;;11.10;;
58665;SDS011;44436;52.872;6.520;2022-08-26T04:42:41;27.08;;;11.13;;
58665;SDS011;44436;52.872;6.520;2022-08-26T04:45:07;24.15;;;11.30;;
58665;SDS011;44436;52.872;6.520;2022-08-26T04:47:33;23.08;;;10.85;;
58665;SDS011;44436;52.872;6.520;2022-08-26T04:49:59;24.55;;;10.43;;
58665;SDS011;44436;52.872;6.520;2022-08-26T04:52:24;21.77;;;10.57;;
58665;SDS011;44436;52.872;6.520;2022-08-26T04:54:50;26.20;;;10.48;;
58665;SDS011;44436;52.872;6.520;2022-08-26T04:57:16;21.15;;;9.90;;
58665;SDS011;44436;52.872;6.520;2022-08-26T04:59:42;22.38;;;11.07;;
58665;SDS011;44436;52.872;6.520;2022-08-26T05:02:07;22.23;;;10.18;;
58665;SDS011;44436;52.872;6.520;2022-08-26T05:04:33;24.52;;;10.60;;
58665;SDS011;44436;52.872;6.520;2022-08-26T05:07:00;22.35;;;9.18;;
58665;SDS011;44436;52.872;6.520;2022-08-26T05:09:25;21.88;;;9.55;;
58665;SDS011;44436;52.872;6.520;2022-08-26T05:11:51;18.55;;;9.23;;
58665;SDS011;44436;52.872;6.520;2022-08-26T05:14:17;21.67;;;8.85;;
58665;SDS011;44436;52.872;6.520;2022-08-26T05:16:43;20.23;;;8.85;;
58665;SDS011;44436;52.872;6.520;2022-08-26T05:19:08;20.48;;;9.30;;
58665;SDS011;44436;52.872;6.520;2022-08-26T05:21:35;24.55;;;8.60;;
58665;SDS011;44436;52.872;6.520;2022-08-26T05:24:01;24.08;;;9.15;;
58665;SDS011;44436;52.872;6.520;2022-08-26T05:26:28;21.65;;;8.88;;
58665;SDS011;44436;52.872;6.520;2022-08-26T05:28:54;24.00;;;8.90;;
58665;SDS011;44436;52.872;6.520;2022-08-26T05:31:22;24.95;;;9.32;;
58665;SDS011;44436;52.872;6.520;2022-08-26T05:33:50;23.35;;;8.90;;
58665;SDS011;44436;52.872;6.520;2022-08-26T05:36:18;18.35;;;8.10;;
58665;SDS011;44436;52.872;6.520;2022-08-26T05:38:46;17.85;;;7.63;;
58665;SDS011;44436;52.872;6.520;2022-08-26T05:41:12;19.13;;;7.47;;
58665;SDS011;44436;52.872;6.520;2022-08-26T05:43:59;17.65;;;8.93;;
58665;SDS011;44436;52.872;6.520;2022-08-26T05:46:25;20.25;;;8.20;;
58665;SDS011;44436;52.872;6.520;2022-08-26T05:48:52;18.88;;;7.78;;
58665;SDS011;44436;52.872;6.520;2022-08-26T05:51:18;18.55;;;7.32;;
58665;SDS011;44436;52.872;6.520;2022-08-26T05:53:45;22.85;;;7.40;;
58665;SDS011;44436;52.872;6.520;2022-08-26T05:56:12;14.15;;;7.05;;
58665;SDS011;44436;52.872;6.520;2022-08-26T05:58:38;15.90;;;7.55;;
58665;SDS011;44436;52.872;6.520;2022-08-26T06:01:12;18.65;;;7.47;;
58665;SDS011;44436;52.872;6.520;2022-08-26T06:03:42;19.33;;;8.15;;
58665;SDS011;44436;52.872;6.520;2022-08-26T06:06:13;19.63;;;7.55;;
58665;SDS011;44436;52.872;6.520;2022-08-26T06:08:40;19.60;;;7.43;;
58665;SDS011;44436;52.872;6.520;2022-08-26T06:11:07;18.60;;;7.00;;
58665;SDS011;44436;52.872;6.520;2022-08-26T06:13:35;14.15;;;6.68;;
58665;SDS011;44436;52.872;6.520;2022-08-26T06:16:03;20.30;;;7.45;;
58665;SDS011;44436;52.872;6.520;2022-08-26T06:18:31;16.95;;;7.25;;
58665;SDS011;44436;52.872;6.520;2022-08-26T06:21:01;18.58;;;7.85;;
58665;SDS011;44436;52.872;6.520;2022-08-26T06:23:56;21.50;;;6.95;;
58665;SDS011;44436;52.872;6.520;2022-08-26T06:26:47;14.32;;;6.05;;
58665;SDS011;44436;52.872;6.520;2022-08-26T06:29:18;18.38;;;6.78;;
58665;SDS011;44436;52.872;6.520;2022-08-26T06:31:44;21.83;;;6.97;;
58665;SDS011;44436;52.872;6.520;2022-08-26T06:34:11;15.55;;;6.38;;
58665;SDS011;44436;52.872;6.520;2022-08-26T06:36:37;19.48;;;6.97;;
58665;SDS011;44436;52.872;6.520;2022-08-26T06:39:07;18.30;;;6.38;;
58665;SDS011;44436;52.872;6.520;2022-08-26T06:41:34;17.80;;;5.80;;
58665;SDS011;44436;52.872;6.520;2022-08-26T06:44:02;20.17;;;6.55;;
58665;SDS011;44436;52.872;6.520;2022-08-26T06:46:30;16.08;;;5.43;;
58665;SDS011;44436;52.872;6.520;2022-08-26T06:48:55;16.90;;;6.05;;
58665;SDS011;44436;52.872;6.520;2022-08-26T06:51:25;19.85;;;6.05;;
58665;SDS011;44436;52.872;6.520;2022-08-26T06:53:53;24.65;;;6.22;;
58665;SDS011;44436;52.872;6.520;2022-08-26T06:56:22;15.25;;;6.07;;
58665;SDS011;44436;52.872;6.520;2022-08-26T06:58:49;19.05;;;5.80;;
58665;SDS011;44436;52.872;6.520;2022-08-26T07:01:23;16.48;;;5.35;;
58665;SDS011;44436;52.872;6.520;2022-08-26T07:03:55;16.75;;;5.15;;
58665;SDS011;44436;52.872;6.520;2022-08-26T07:06:23;16.45;;;5.63;;
58665;SDS011;44436;52.872;6.520;2022-08-26T07:08:51;20.40;;;5.38;;
58665;SDS011;44436;52.872;6.520;2022-08-26T07:11:18;16.80;;;4.78;;
58665;SDS011;44436;52.872;6.520;2022-08-26T07:13:45;12.77;;;4.78;;
58665;SDS011;44436;52.872;6.520;2022-08-26T07:16:12;14.85;;;4.72;;
58665;SDS011;44436;52.872;6.520;2022-08-26T07:18:40;16.75;;;5.22;;
58665;SDS011;44436;52.872;6.520;2022-08-26T07:21:07;16.60;;;4.03;;
58665;SDS011;44436;52.872;6.520;2022-08-26T07:23:34;14.00;;;4.22;;
58665;SDS011;44436;52.872;6.520;2022-08-26T07:26:07;20.50;;;5.40;;
58665;SDS011;44436;52.872;6.520;2022-08-26T07:28:34;23.85;;;4.82;;
58665;SDS011;44436;52.872;6.520;2022-08-26T07:31:03;18.58;;;4.30;;
58665;SDS011;44436;52.872;6.520;2022-08-26T07:33:30;14.07;;;4.00;;
58665;SDS011;44436;52.872;6.520;2022-08-26T07:35:56;15.38;;;3.70;;
58665;SDS011;44436;52.872;6.520;2022-08-26T07:38:22;16.88;;;4.63;;
58665;SDS011;44436;52.872;6.520;2022-08-26T07:40:47;12.70;;;3.90;;
58665;SDS011;44436;52.872;6.520;2022-08-26T07:43:13;21.45;;;4.20;;
58665;SDS011;44436;52.872;6.520;2022-08-26T07:45:38;19.17;;;4.38;;
58665;SDS011;44436;52.872;6.520;2022-08-26T07:48:04;14.85;;;4.43;;
58665;SDS011;44436;52.872;6.520;2022-08-26T07:50:30;14.82;;;3.90;;
58665;SDS011;44436;52.872;6.520;2022-08-26T07:52:56;14.73;;;3.70;;
58665;SDS011;44436;52.872;6.520;2022-08-26T07:55:22;17.83;;;3.38;;
58665;SDS011;44436;52.872;6.520;2022-08-26T07:57:48;20.08;;;3.88;;
58665;SDS011;44436;52.872;6.520;2022-08-26T08:00:14;14.73;;;3.70;;
58665;SDS011;44436;52.872;6.520;2022-08-26T08:02:40;16.15;;;3.20;;
58665;SDS011;44436;52.872;6.520;2022-08-26T08:05:09;15.93;;;3.63;;
58665;SDS011;44436;52.872;6.520;2022-08-26T08:07:36;12.10;;;3.50;;
58665;SDS011;44436;52.872;6.520;2022-08-26T08:10:02;14.07;;;2.90;;
58665;SDS011;44436;52.872;6.520;2022-08-26T08:12:28;13.05;;;3.45;;
58665;SDS011;44436;52.872;6.520;2022-08-26T08:14:54;12.18;;;2.72;;
58665;SDS011;44436;52.872;6.520;2022-08-26T08:17:19;9.98;;;2.75;;
58665;SDS011;44436;52.872;6.520;2022-08-26T08:19:45;11.15;;;2.60;;
58665;SDS011;44436;52.872;6.520;2022-08-26T08:22:11;9.73;;;2.15;;
58665;SDS011;44436;52.872;6.520;2022-08-26T08:24:36;10.65;;;2.10;;
58665;SDS011;44436;52.872;6.520;2022-08-26T08:27:03;13.32;;;2.30;;
58665;SDS011;44436;52.872;6.520;2022-08-26T08:29:28;12.88;;;2.70;;
58665;SDS011;44436;52.872;6.520;2022-08-26T08:31:57;12.73;;;2.65;;
58665;SDS011;44436;52.872;6.520;2022-08-26T08:34:24;11.73;;;2.50;;
58665;SDS011;44436;52.872;6.520;2022-08-26T08:36:51;13.10;;;2.67;;
58665;SDS011;44436;52.872;6.520;2022-08-26T08:39:17;11.48;;;2.70;;
58665;SDS011;44436;52.872;6.520;2022-08-26T08:44:18;13.20;;;2.40;;
58665;SDS011;44436;52.872;6.520;2022-08-26T08:46:46;13.73;;;2.78;;
58665;SDS011;44436;52.872;6.520;2022-08-26T08:49:17;13.77;;;2.65;;
58665;SDS011;44436;52.872;6.520;2022-08-26T08:54:18;9.82;;;1.90;;
58665;SDS011;44436;52.872;6.520;2022-08-26T08:56:52;17.77;;;2.05;;
58665;SDS011;44436;52.872;6.520;2022-08-26T08:59:23;9.90;;;1.98;;
58665;SDS011;44436;52.872;6.520;2022-08-26T09:01:58;10.55;;;2.20;;
58665;SDS011;44436;52.872;6.520;2022-08-26T09:07:25;9.07;;;2.03;;
58665;SDS011;44436;52.872;6.520;2022-08-26T09:12:53;8.93;;;1.90;;
58665;SDS011;44436;52.872;6.520;2022-08-26T09:20:45;10.48;;;1.88;;
58665;SDS011;44436;52.872;6.520;2022-08-26T09:23:29;9.02;;;1.60;;
58665;SDS011;44436;52.872;6.520;2022-08-26T09:26:12;9.27;;;1.98;;
58665;SDS011;44436;52.872;6.520;2022-08-26T09:28:39;8.43;;;1.80;;
58665;SDS011;44436;52.872;6.520;2022-08-26T09:31:13;11.27;;;2.03;;
58665;SDS011;44436;52.872;6.520;2022-08-26T09:33:51;10.63;;;1.95;;
58665;SDS011;44436;52.872;6.520;2022-08-26T09:36:37;9.63;;;1.65;;
58665;SDS011;44436;52.872;6.520;2022-08-26T09:39:25;5.57;;;1.63;;
58665;SDS011;44436;52.872;6.520;2022-08-26T09:44:30;17.88;;;3.00;;
58665;SDS011;44436;52.872;6.520;2022-08-26T09:47:01;7.82;;;1.70;;
58665;SDS011;44436;52.872;6.520;2022-08-26T09:54:38;13.50;;;2.28;;
58665;SDS011;44436;52.872;6.520;2022-08-26T09:59:56;7.35;;;2.00;;
58665;SDS011;44436;52.872;6.520;2022-08-26T10:05:00;12.63;;;2.00;;
58665;SDS011;44436;52.872;6.520;2022-08-26T10:07:45;10.57;;;2.17;;
58665;SDS011;44436;52.872;6.520;2022-08-26T10:10:26;10.80;;;2.15;;
58665;SDS011;44436;52.872;6.520;2022-08-26T10:13:05;9.25;;;1.98;;
58665;SDS011;44436;52.872;6.520;2022-08-26T10:15:58;13.75;;;1.92;;
58665;SDS011;44436;52.872;6.520;2022-08-26T10:21:28;15.80;;;2.55;;
58665;SDS011;44436;52.872;6.520;2022-08-26T10:24:00;18.65;;;2.53;;
58665;SDS011;44436;52.872;6.520;2022-08-26T10:29:16;9.50;;;1.85;;
58665;SDS011;44436;52.872;6.520;2022-08-26T10:34:24;15.68;;;3.40;;
58665;SDS011;44436;52.872;6.520;2022-08-26T10:37:00;11.35;;;2.15;;
58665;SDS011;44436;52.872;6.520;2022-08-26T10:39:41;9.45;;;1.90;;
58665;SDS011;44436;52.872;6.520;2022-08-26T10:44:47;15.48;;;2.38;;
58665;SDS011;44436;52.872;6.520;2022-08-26T10:47:20;9.43;;;1.80;;
58665;SDS011;44436;52.872;6.520;2022-08-26T10:49:49;12.02;;;2.38;;
58665;SDS011;44436;52.872;6.520;2022-08-26T10:52:22;6.60;;;2.08;;
58665;SDS011;44436;52.872;6.520;2022-08-26T10:55:10;11.75;;;2.05;;
58665;SDS011;44436;52.872;6.520;2022-08-26T10:57:46;7.82;;;2.25;;
58665;SDS011;44436;52.872;6.520;2022-08-26T11:00:21;7.38;;;1.75;;
58665;SDS011;44436;52.872;6.520;2022-08-26T11:03:49;8.98;;;2.00;;
58665;SDS011;44436;52.872;6.520;2022-08-26T11:08:51;12.20;;;2.38;;
58665;SDS011;44436;52.872;6.520;2022-08-26T11:19:00;10.80;;;2.03;;
58665;SDS011;44436;52.872;6.520;2022-08-26T11:21:42;15.30;;;2.30;;
58665;SDS011;44436;52.872;6.520;2022-08-26T11:35:04;11.15;;;2.00;;
58665;SDS011;44436;52.872;6.520;2022-08-26T11:37:57;8.25;;;1.60;;
58665;SDS011;44436;52.872;6.520;2022-08-26T11:40:29;10.48;;;1.80;;
58665;SDS011;44436;52.872;6.520;2022-08-26T11:42:59;10.25;;;2.38;;
58665;SDS011;44436;52.872;6.520;2022-08-26T11:45:46;7.82;;;1.52;;
58665;SDS011;44436;52.872;6.520;2022-08-26T11:50:51;9.40;;;1.80;;
58665;SDS011;44436;52.872;6.520;2022-08-26T11:53:21;9.25;;;1.60;;
58665;SDS011;44436;52.872;6.520;2022-08-26T11:55:50;9.73;;;2.22;;
58665;SDS011;44436;52.872;6.520;2022-08-26T11:58:21;12.80;;;1.80;;
58665;SDS011;44436;52.872;6.520;2022-08-26T12:00:53;7.50;;;1.45;;
58665;SDS011;44436;52.872;6.520;2022-08-26T12:03:32;12.88;;;2.30;;
58665;SDS011;44436;52.872;6.520;2022-08-26T12:06:27;11.45;;;1.65;;
58665;SDS011;44436;52.872;6.520;2022-08-26T12:09:02;9.23;;;2.03;;
58665;SDS011;44436;52.872;6.520;2022-08-26T12:11:34;7.65;;;1.90;;
58665;SDS011;44436;52.872;6.520;2022-08-26T12:14:02;7.82;;;1.67;;
58665;SDS011;44436;52.872;6.520;2022-08-26T12:16:31;9.27;;;1.55;;
58665;SDS011;44436;52.872;6.520;2022-08-26T12:19:00;8.80;;;1.67;;
58665;SDS011;44436;52.872;6.520;2022-08-26T12:21:45;8.18;;;1.98;;
58665;SDS011;44436;52.872;6.520;2022-08-26T12:24:11;10.00;;;1.50;;
58665;SDS011;44436;52.872;6.520;2022-08-26T12:26:42;5.97;;;1.30;;
58665;SDS011;44436;52.872;6.520;2022-08-26T12:29:09;6.30;;;1.20;;
58665;SDS011;44436;52.872;6.520;2022-08-26T12:31:49;7.78;;;1.33;;
58665;SDS011;44436;52.872;6.520;2022-08-26T12:34:15;8.45;;;1.17;;
58665;SDS011;44436;52.872;6.520;2022-08-26T12:39:14;7.32;;;1.40;;
58665;SDS011;44436;52.872;6.520;2022-08-26T12:41:53;7.80;;;1.55;;
58665;SDS011;44436;52.872;6.520;2022-08-26T12:50:08;6.22;;;1.30;;
58665;SDS011;44436;52.872;6.520;2022-08-26T12:52:53;5.00;;;1.30;;
58665;SDS011;44436;52.872;6.520;2022-08-26T12:58:28;9.18;;;1.40;;
58665;SDS011;44436;52.872;6.520;2022-08-26T13:08:59;5.43;;;1.25;;
58665;SDS011;44436;52.872;6.520;2022-08-26T13:11:55;4.10;;;1.17;;
58665;SDS011;44436;52.872;6.520;2022-08-26T13:14:21;4.32;;;1.20;;
58665;SDS011;44436;52.872;6.520;2022-08-26T13:16:48;9.45;;;1.55;;
58665;SDS011;44436;52.872;6.520;2022-08-26T13:19:15;6.75;;;1.23;;
58665;SDS011;44436;52.872;6.520;2022-08-26T13:21:52;6.07;;;1.13;;
58665;SDS011;44436;52.872;6.520;2022-08-26T13:24:20;14.63;;;1.95;;
58665;SDS011;44436;52.872;6.520;2022-08-26T13:26:50;9.18;;;1.50;;
58665;SDS011;44436;52.872;6.520;2022-08-26T13:29:16;7.38;;;1.85;;
58665;SDS011;44436;52.872;6.520;2022-08-26T13:31:42;8.40;;;1.67;;
58665;SDS011;44436;52.872;6.520;2022-08-26T13:34:09;8.50;;;1.80;;
58665;SDS011;44436;52.872;6.520;2022-08-26T13:36:38;10.38;;;1.75;;
58665;SDS011;44436;52.872;6.520;2022-08-26T13:39:04;6.35;;;1.63;;
58665;SDS011;44436;52.872;6.520;2022-08-26T13:41:30;6.75;;;1.67;;
58665;SDS011;44436;52.872;6.520;2022-08-26T13:43:56;5.07;;;1.63;;
58665;SDS011;44436;52.872;6.520;2022-08-26T13:46:23;6.10;;;1.27;;
58665;SDS011;44436;52.872;6.520;2022-08-26T13:48:52;6.72;;;1.92;;
58665;SDS011;44436;52.872;6.520;2022-08-26T13:51:18;7.10;;;1.63;;
58665;SDS011;44436;52.872;6.520;2022-08-26T13:53:46;7.20;;;1.52;;
58665;SDS011;44436;52.872;6.520;2022-08-26T13:56:12;5.50;;;1.83;;
58665;SDS011;44436;52.872;6.520;2022-08-26T13:58:38;6.05;;;1.90;;
58665;SDS011;44436;52.872;6.520;2022-08-26T14:01:04;8.63;;;1.67;;
58665;SDS011;44436;52.872;6.520;2022-08-26T14:03:29;5.25;;;1.63;;
58665;SDS011;44436;52.872;6.520;2022-08-26T14:05:55;6.50;;;1.67;;
58665;SDS011;44436;52.872;6.520;2022-08-26T14:08:21;8.35;;;1.83;;
58665;SDS011;44436;52.872;6.520;2022-08-26T14:10:46;6.13;;;1.45;;
58665;SDS011;44436;52.872;6.520;2022-08-26T14:13:12;6.85;;;1.67;;
58665;SDS011;44436;52.872;6.520;2022-08-26T14:15:39;6.30;;;1.65;;
58665;SDS011;44436;52.872;6.520;2022-08-26T14:18:06;8.55;;;2.00;;
58665;SDS011;44436;52.872;6.520;2022-08-26T14:20:34;9.63;;;1.50;;
58665;SDS011;44436;52.872;6.520;2022-08-26T14:23:01;8.00;;;1.50;;
58665;SDS011;44436;52.872;6.520;2022-08-26T14:25:27;8.07;;;1.85;;
58665;SDS011;44436;52.872;6.520;2022-08-26T14:27:53;7.80;;;2.03;;
58665;SDS011;44436;52.872;6.520;2022-08-26T14:30:19;7.97;;;1.95;;
58665;SDS011;44436;52.872;6.520;2022-08-26T14:32:50;6.03;;;1.38;;
58665;SDS011;44436;52.872;6.520;2022-08-26T14:37:46;6.95;;;1.55;;
58665;SDS011;44436;52.872;6.520;2022-08-26T14:40:12;12.77;;;1.42;;
58665;SDS011;44436;52.872;6.520;2022-08-26T14:42:38;10.77;;;1.77;;
58665;SDS011;44436;52.872;6.520;2022-08-26T14:45:06;9.57;;;1.55;;
58665;SDS011;44436;52.872;6.520;2022-08-26T14:47:35;8.90;;;1.67;;
58665;SDS011;44436;52.872;6.520;2022-08-26T14:50:00;7.97;;;1.83;;
58665;SDS011;44436;52.872;6.520;2022-08-26T14:52:26;7.40;;;1.48;;
58665;SDS011;44436;52.872;6.520;2022-08-26T14:54:52;8.43;;;1.40;;
58665;SDS011;44436;52.872;6.520;2022-08-26T14:57:17;5.80;;;1.42;;
58665;SDS011;44436;52.872;6.520;2022-08-26T14:59:44;6.68;;;1.15;;
58665;SDS011;44436;52.872;6.520;2022-08-26T15:02:12;7.63;;;1.58;;
58665;SDS011;44436;52.872;6.520;2022-08-26T15:04:38;9.38;;;2.10;;
58665;SDS011;44436;52.872;6.520;2022-08-26T15:07:04;7.20;;;1.60;;
58665;SDS011;44436;52.872;6.520;2022-08-26T15:09:32;9.38;;;1.70;;
58665;SDS011;44436;52.872;6.520;2022-08-26T15:11:59;11.70;;;1.33;;
58665;SDS011;44436;52.872;6.520;2022-08-26T15:14:27;12.55;;;1.60;;
58665;SDS011;44436;52.872;6.520;2022-08-26T15:16:53;11.85;;;1.58;;
58665;SDS011;44436;52.872;6.520;2022-08-26T15:19:21;11.60;;;1.40;;
58665;SDS011;44436;52.872;6.520;2022-08-26T15:21:48;10.65;;;1.92;;
58665;SDS011;44436;52.872;6.520;2022-08-26T15:24:17;6.10;;;1.17;;
58665;SDS011;44436;52.872;6.520;2022-08-26T15:26:45;11.18;;;2.20;;
58665;SDS011;44436;52.872;6.520;2022-08-26T15:29:12;8.82;;;1.45;;
58665;SDS011;44436;52.872;6.520;2022-08-26T15:31:38;7.50;;;1.23;;
58665;SDS011;44436;52.872;6.520;2022-08-26T15:34:08;12.95;;;1.77;;
58665;SDS011;44436;52.872;6.520;2022-08-26T15:36:35;10.50;;;2.35;;
58665;SDS011;44436;52.872;6.520;2022-08-26T15:39:02;10.95;;;1.30;;
58665;SDS011;44436;52.872;6.520;2022-08-26T15:41:30;13.88;;;1.48;;
58665;SDS011;44436;52.872;6.520;2022-08-26T15:43:56;13.35;;;1.75;;
58665;SDS011;44436;52.872;6.520;2022-08-26T15:46:22;9.10;;;1.70;;
58665;SDS011;44436;52.872;6.520;2022-08-26T15:48:47;9.90;;;1.15;;
58665;SDS011;44436;52.872;6.520;2022-08-26T15:53:46;8.32;;;1.40;;
58665;SDS011;44436;52.872;6.520;2022-08-26T15:56:12;8.20;;;1.30;;
58665;SDS011;44436;52.872;6.520;2022-08-26T15:58:38;9.10;;;1.38;;
58665;SDS011;44436;52.872;6.520;2022-08-26T16:01:03;10.10;;;1.42;;
58665;SDS011;44436;52.872;6.520;2022-08-26T16:03:29;8.95;;;1.55;;
58665;SDS011;44436;52.872;6.520;2022-08-26T16:05:55;8.75;;;1.20;;
58665;SDS011;44436;52.872;6.520;2022-08-26T16:08:20;7.30;;;1.75;;
58665;SDS011;44436;52.872;6.520;2022-08-26T16:10:47;17.98;;;2.95;;
58665;SDS011;44436;52.872;6.520;2022-08-26T16:13:13;5.85;;;1.23;;
58665;SDS011;44436;52.872;6.520;2022-08-26T16:15:39;6.35;;;1.20;;